Time;durP1;ratioP1;P1;durP2;ratioP2;P2;SDS_P1;SDS_P2;PMS_P1;PMS_P2;Temp;Humidity;BMP_temperature;BMP_pressure;BME280_temperature;BME280_humidity;BME280_pressure;Samples;Min_cycle;Max_cycle;Signal;HPM_P1;HPM_P2
2022/09/02 00:00:20;;;;;;;;;;;;;;;21.42;45.31;101452.78;1027750;28;670;-66
2022/09/02 00:01:11;;;;;;;;;;;;;;;21.43;45.34;101454.50;1029884;28;674;-65
2022/09/02 00:02:01;;;;;;;;;;;;;;;21.42;45.37;101455.50;1029207;28;721;-66
2022/09/02 00:02:53;;;;;;;;;;;;;;;21.41;45.31;101453.81;1028247;28;643;-66
2022/09/02 00:03:44;;;;;;;;;;;;;;;21.41;45.21;101457.38;1027433;28;651;-65
2022/09/02 00:04:34;;;;;;;;;;;;;;;21.41;45.42;101454.66;1026043;28;1215;-65
2022/09/02 00:05:24;;;;;;;;;;;;;;;21.41;45.32;101457.38;1025857;28;651;-66
2022/09/02 00:06:15;;;;;;;;;;;;;;;21.41;45.10;101453.81;1029517;28;1487;-66
2022/09/02 00:07:05;;;;;;;;;;;;;;;21.40;45.27;101454.81;1030127;28;647;-65
2022/09/02 00:07:56;;;;;;;;;;;;;;;21.39;45.13;101453.09;1028309;28;722;-65
2022/09/02 00:08:46;;;;;;;;;;;;;;;21.40;45.42;101449.38;1028467;28;713;-66
2022/09/02 00:09:39;;;;;;;;;;;;;;;21.39;44.64;101453.94;1030213;28;658;-65
2022/09/02 00:10:29;;;;;;;;;;;;;;;21.40;45.19;101446.66;1029070;28;710;-65
2022/09/02 00:11:20;;;;;;;;;;;;;;;21.38;45.47;101452.25;1030257;28;674;-65
2022/09/02 00:12:11;;;;;;;;;;;;;;;21.40;45.12;101447.53;1030150;28;650;-66
2022/09/02 00:13:02;;;;;;;;;;;;;;;21.37;45.20;101453.25;1028481;28;630;-66
2022/09/02 00:13:52;;;;;;;;;;;;;;;21.39;45.18;101453.09;1030105;28;634;-66
2022/09/02 00:14:43;;;;;;;;;;;;;;;21.36;45.34;101446.13;1029214;28;1977;-66
2022/09/02 00:15:33;;;;;;;;;;;;;;;21.35;45.25;101455.25;1029265;28;623;-66
2022/09/02 00:16:23;;;;;;;;;;;;;;;21.35;45.28;101449.84;1029142;28;638;-65
2022/09/02 00:17:14;;;;;;;;;;;;;;;21.34;45.23;101450.00;1030097;28;626;-66
2022/09/02 00:18:05;;;;;;;;;;;;;;;21.34;44.97;101450.00;1029531;28;1083;-66
2022/09/02 00:18:56;;;;;;;;;;;;;;;21.33;45.08;101451.84;1028884;28;678;-66
2022/09/02 00:19:47;;;;;;;;;;;;;;;21.33;45.11;101446.44;1029542;28;741;-66
2022/09/02 00:20:37;;;;;;;;;;;;;;;21.33;45.10;101451.00;1030106;28;667;-65
2022/09/02 00:21:27;;;;;;;;;;;;;;;21.31;44.92;101451.19;1029556;28;701;-66
2022/09/02 00:22:18;;;;;;;;;;;;;;;21.31;45.29;101442.19;1028644;28;615;-65
2022/09/02 00:23:09;;;;;;;;;;;;;;;21.31;44.88;101453.03;1029794;28;728;-65
2022/09/02 00:23:59;;;;;;;;;;;;;;;21.30;45.04;101454.03;1028987;28;726;-66
2022/09/02 00:24:49;;;;;;;;;;;;;;;21.29;44.98;101445.06;1029033;28;718;-66
2022/09/02 00:25:40;;;;;;;;;;;;;;;21.29;45.00;101449.63;1029508;28;598;-66
2022/09/02 00:26:30;;;;;;;;;;;;;;;21.29;44.99;101447.78;1029626;28;650;-65
2022/09/02 00:27:21;;;;;;;;;;;;;;;21.30;44.93;101451.34;1029303;28;1108;-66
2022/09/02 00:28:11;;;;;;;;;;;;;;;21.30;45.13;101443.19;1029514;28;709;-65
2022/09/02 00:29:02;;;;;;;;;;;;;;;21.29;44.91;101449.63;1029047;28;642;-65
2022/09/02 00:29:52;;;;;;;;;;;;;;;21.26;45.15;101444.50;1029444;28;725;-66
2022/09/02 00:30:42;;;;;;;;;;;;;;;21.27;44.95;101446.22;1028987;28;658;-65
2022/09/02 00:31:35;;;;;;;;;;;;;;;21.27;44.98;101446.22;1029452;28;666;-65
2022/09/02 00:32:25;;;;;;;;;;;;;;;21.27;44.84;101444.34;1029109;28;666;-65
2022/09/02 00:33:16;;;;;;;;;;;;;;;21.27;44.91;101451.63;1029429;28;941;-66
2022/09/02 00:34:06;;;;;;;;;;;;;;;21.27;45.00;101446.22;1028951;28;730;-66
2022/09/02 00:34:57;;;;;;;;;;;;;;;21.24;45.08;101441.09;1029396;28;1907;-66
2022/09/02 00:35:48;;;;;;;;;;;;;;;21.25;45.02;101445.50;1029026;28;654;-66
2022/09/02 00:36:38;;;;;;;;;;;;;;;21.22;45.08;101443.09;1026053;28;680;-66
2022/09/02 00:37:28;;;;;;;;;;;;;;;21.25;45.20;101442.81;1025455;28;627;-66
2022/09/02 00:38:19;;;;;;;;;;;;;;;21.25;44.99;101443.66;1025416;28;706;-66
2022/09/02 00:39:09;;;;;;;;;;;;;;;21.26;45.01;101447.22;1025511;29;741;-66
2022/09/02 00:40:00;;;;;;;;;;;;;;;21.25;45.15;101445.50;1025354;28;736;-66
2022/09/02 00:40:50;;;;;;;;;;;;;;;21.25;44.94;101442.81;1025502;29;623;-66
2022/09/02 00:41:41;;;;;;;;;;;;;;;21.23;44.80;101437.53;1025420;28;650;-66
2022/09/02 00:42:31;;;;;;;;;;;;;;;21.23;45.06;101442.09;1032964;28;627;-66
2022/09/02 00:43:21;;;;;;;;;;;;;;;21.22;45.16;101437.69;1032997;28;678;-66
2022/09/02 00:44:12;;;;;;;;;;;;;;;21.22;45.21;101445.81;1032865;28;690;-66
2022/09/02 00:45:03;;;;;;;;;;;;;;;21.21;45.36;101436.81;1032942;28;698;-66
2022/09/02 00:45:54;;;;;;;;;;;;;;;21.22;45.05;101443.09;1033451;28;710;-66
2022/09/02 00:46:45;;;;;;;;;;;;;;;21.22;45.33;101432.25;1033453;28;721;-66
2022/09/02 00:47:35;;;;;;;;;;;;;;;21.20;45.47;101435.13;1032884;28;646;-65
2022/09/02 00:48:26;;;;;;;;;;;;;;;21.22;45.50;101437.69;1032945;28;792;-66
2022/09/02 00:49:16;;;;;;;;;;;;;;;21.22;45.34;101427.69;1032869;28;681;-66
2022/09/02 00:50:07;;;;;;;;;;;;;;;21.22;45.29;101429.56;1032151;28;922;-66
2022/09/02 00:50:57;;;;;;;;;;;;;;;21.22;45.17;101434.97;1032896;28;718;-65
2022/09/02 00:51:48;;;;;;;;;;;;;;;21.20;45.36;101429.69;1032652;28;1333;-65
2022/09/02 00:52:38;;;;;;;;;;;;;;;21.19;45.62;101427.09;1029978;28;627;-65
2022/09/02 00:53:28;;;;;;;;;;;;;;;21.19;45.52;101427.09;1026476;28;702;-66
2022/09/02 00:54:19;;;;;;;;;;;;;;;21.19;45.51;101432.53;1025413;29;634;-65
2022/09/02 00:55:09;;;;;;;;;;;;;;;21.19;45.26;101424.41;1025362;29;1887;-65
2022/09/02 00:56:00;;;;;;;;;;;;;;;21.19;45.55;101427.97;1026030;28;686;-66
2022/09/02 00:56:50;;;;;;;;;;;;;;;21.20;45.21;101428.84;1025564;28;623;-65
2022/09/02 00:57:41;;;;;;;;;;;;;;;21.20;45.47;101432.41;1025917;28;721;-66
2022/09/02 00:58:31;;;;;;;;;;;;;;;21.19;45.42;101427.09;1025772;28;626;-66
2022/09/02 00:59:21;;;;;;;;;;;;;;;21.19;45.49;101427.09;1025631;28;565;-66
2022/09/02 01:00:12;;;;;;;;;;;;;;;21.19;45.66;101427.09;1025663;28;630;-65
2022/09/02 01:01:02;;;;;;;;;;;;;;;21.17;45.75;101424.53;1025569;28;666;-66
2022/09/02 01:01:53;;;;;;;;;;;;;;;21.17;45.63;101423.69;1025364;29;737;-66
2022/09/02 01:02:43;;;;;;;;;;;;;;;21.15;45.69;101427.41;1025284;29;682;-65
2022/09/02 01:03:34;;;;;;;;;;;;;;;21.17;45.76;101420.97;1025512;29;643;-65
2022/09/02 01:04:24;;;;;;;;;;;;;;;21.16;45.71;101420.13;1025325;28;616;-66
2022/09/02 01:05:16;;;;;;;;;;;;;;;21.15;45.79;101423.84;1024205;29;662;-66
2022/09/02 01:06:06;;;;;;;;;;;;;;;21.17;45.75;101429.13;1024225;29;643;-66
2022/09/02 01:06:57;;;;;;;;;;;;;;;21.16;45.69;101420.13;1025371;29;647;-65
2022/09/02 01:07:50;;;;;;;;;;;;;;;21.17;45.68;101418.28;1025679;28;1358;-65
2022/09/02 01:08:40;;;;;;;;;;;;;;;21.14;45.84;101414.00;1024785;29;662;-65
2022/09/02 01:09:32;;;;;;;;;;;;;;;21.13;45.74;101421.31;1025190;29;681;-65
2022/09/02 01:10:22;;;;;;;;;;;;;;;21.11;45.55;101420.63;1026229;28;673;-65
2022/09/02 01:11:13;;;;;;;;;;;;;;;21.12;45.80;101416.06;1024582;29;724;-66
2022/09/02 01:12:04;;;;;;;;;;;;;;;21.11;45.65;101411.63;1025442;28;721;-66
2022/09/02 01:12:54;;;;;;;;;;;;;;;21.12;45.79;101419.63;1024841;29;740;-66
2022/09/02 01:13:45;;;;;;;;;;;;;;;21.12;45.74;101413.34;1024827;29;638;-66
2022/09/02 01:14:35;;;;;;;;;;;;;;;21.12;45.66;101422.31;1025347;29;690;-65
2022/09/02 01:15:26;;;;;;;;;;;;;;;21.10;45.74;101413.50;1025243;28;622;-65
2022/09/02 01:16:16;;;;;;;;;;;;;;;21.11;45.73;101426.03;1025304;29;635;-66
2022/09/02 01:17:07;;;;;;;;;;;;;;;21.10;45.49;101418.06;1025249;28;664;-65
2022/09/02 01:17:57;;;;;;;;;;;;;;;21.10;45.69;101418.91;1025356;29;690;-65
2022/09/02 01:18:48;;;;;;;;;;;;;;;21.11;45.56;101419.75;1025354;28;623;-65
2022/09/02 01:19:39;;;;;;;;;;;;;;;21.10;45.91;101421.63;1024771;29;769;-65
2022/09/02 01:20:29;;;;;;;;;;;;;;;21.10;45.78;101418.91;1025213;28;623;-65
2022/09/02 01:21:19;;;;;;;;;;;;;;;21.09;45.69;101417.22;1025160;29;698;-65
2022/09/02 01:22:10;;;;;;;;;;;;;;;21.09;45.91;101417.22;1025286;28;623;-65
2022/09/02 01:23:01;;;;;;;;;;;;;;;21.08;45.76;101415.50;1025348;28;686;-65
2022/09/02 01:23:51;;;;;;;;;;;;;;;21.08;45.53;101415.50;1027208;28;1432;-65
2022/09/02 01:24:42;;;;;;;;;;;;;;;21.09;45.91;101416.34;1032543;28;638;-65
2022/09/02 01:25:32;;;;;;;;;;;;;;;21.08;45.77;101415.50;1031642;28;626;-65
2022/09/02 01:26:22;;;;;;;;;;;;;;;21.06;46.00;101414.81;1032770;28;724;-65
2022/09/02 01:27:13;;;;;;;;;;;;;;;21.07;45.74;101413.78;1032734;28;670;-65
2022/09/02 01:28:03;;;;;;;;;;;;;;;21.06;45.94;101412.09;1032762;28;677;-65
2022/09/02 01:28:54;;;;;;;;;;;;;;;21.07;45.82;101415.66;1032910;28;686;-65
2022/09/02 01:29:44;;;;;;;;;;;;;;;21.06;45.75;101409.38;1032706;28;654;-66
2022/09/02 01:30:34;;;;;;;;;;;;;;;21.06;45.81;101412.09;1032727;28;643;-66
2022/09/02 01:31:25;;;;;;;;;;;;;;;21.05;45.97;101413.09;1028956;28;729;-65
2022/09/02 01:32:15;;;;;;;;;;;;;;;21.06;46.03;101422.06;1028456;28;757;-65
2022/09/02 01:33:06;;;;;;;;;;;;;;;21.05;45.82;101415.81;1032622;28;690;-65
2022/09/02 01:33:57;;;;;;;;;;;;;;;21.04;46.15;101408.69;1032688;28;650;-65
2022/09/02 01:34:48;;;;;;;;;;;;;;;21.04;45.86;101407.81;1032579;28;1914;-65
2022/09/02 01:35:38;;;;;;;;;;;;;;;21.05;45.75;101404.09;1032736;28;619;-65
2022/09/02 01:36:29;;;;;;;;;;;;;;;21.04;46.01;101408.69;1032025;28;784;-65
2022/09/02 01:37:19;;;;;;;;;;;;;;;21.04;45.78;101399.69;1032683;28;698;-65
2022/09/02 01:38:10;;;;;;;;;;;;;;;21.05;45.76;101399.53;1032725;28;700;-65
2022/09/02 01:39:00;;;;;;;;;;;;;;;21.03;45.65;101395.28;1032720;28;626;-65
2022/09/02 01:39:51;;;;;;;;;;;;;;;21.02;45.70;101407.13;1030188;28;1483;-65
2022/09/02 01:40:41;;;;;;;;;;;;;;;21.01;46.06;101398.13;1029183;28;647;-65
2022/09/02 01:41:32;;;;;;;;;;;;;;;21.02;45.99;101399.00;1028605;28;666;-65
2022/09/02 01:42:22;;;;;;;;;;;;;;;21.02;46.19;101399.84;1029675;28;782;-65
2022/09/02 01:43:13;;;;;;;;;;;;;;;21.00;45.70;101401.84;1029842;28;674;-65
2022/09/02 01:44:04;;;;;;;;;;;;;;;21.00;45.96;101396.44;1029822;28;971;-65
2022/09/02 01:44:54;;;;;;;;;;;;;;;20.98;45.93;101393.03;1028299;28;751;-66
2022/09/02 01:45:45;;;;;;;;;;;;;;;20.97;46.07;101396.72;1028020;28;623;-65
2022/09/02 01:46:35;;;;;;;;;;;;;;;21.00;46.25;101392.88;1029693;28;698;-65
2022/09/02 01:47:26;;;;;;;;;;;;;;;21.01;45.94;101394.56;1029712;28;660;-66
2022/09/02 01:48:16;;;;;;;;;;;;;;;21.01;46.19;101389.16;1029284;28;646;-65
2022/09/02 01:49:06;;;;;;;;;;;;;;;21.02;45.96;101396.28;1029263;28;709;-66
2022/09/02 01:49:57;;;;;;;;;;;;;;;21.01;45.80;101390.00;1029731;28;662;-65
2022/09/02 01:50:48;;;;;;;;;;;;;;;21.02;45.74;101393.56;1029656;28;670;-65
2022/09/02 01:51:38;;;;;;;;;;;;;;;21.00;45.96;101390.16;1028599;28;647;-65
2022/09/02 01:52:29;;;;;;;;;;;;;;;20.98;45.83;101393.03;1027918;28;713;-65
2022/09/02 01:53:19;;;;;;;;;;;;;;;20.97;45.96;101391.31;1026273;28;713;-65
2022/09/02 01:54:10;;;;;;;;;;;;;;;20.97;45.96;101390.47;1025270;29;722;-65
2022/09/02 01:55:00;;;;;;;;;;;;;;;20.94;45.83;101386.22;1025747;28;1899;-65
2022/09/02 01:55:51;;;;;;;;;;;;;;;20.95;45.91;101389.78;1029580;28;1452;-66
2022/09/02 01:56:41;;;;;;;;;;;;;;;20.93;45.97;101387.22;1032027;28;643;-65
2022/09/02 01:57:32;;;;;;;;;;;;;;;20.94;46.28;101390.78;1033094;28;631;-65
2022/09/02 01:58:22;;;;;;;;;;;;;;;20.94;46.05;101397.06;1032646;28;741;-65
2022/09/02 01:59:16;;;;;;;;;;;;;;;20.93;46.09;101389.94;1028230;28;720;-65
2022/09/02 02:00:07;;;;;;;;;;;;;;;20.94;45.92;101385.38;1027950;28;663;-66
2022/09/02 02:00:57;;;;;;;;;;;;;;;20.94;45.97;101390.78;1032633;28;646;-65
2022/09/02 02:01:48;;;;;;;;;;;;;;;20.94;46.09;101397.06;1032742;28;736;-66
2022/09/02 02:02:38;;;;;;;;;;;;;;;20.93;46.33;101389.09;1032499;28;721;-65
2022/09/02 02:03:28;;;;;;;;;;;;;;;20.93;46.01;101392.66;1032100;28;658;-66
2022/09/02 02:04:19;;;;;;;;;;;;;;;20.93;46.03;101389.09;1032534;28;705;-65
2022/09/02 02:05:09;;;;;;;;;;;;;;;20.93;45.94;101392.66;1033167;28;710;-65
2022/09/02 02:06:00;;;;;;;;;;;;;;;20.93;45.89;101392.66;1032548;28;635;-65
2022/09/02 02:06:50;;;;;;;;;;;;;;;20.92;45.95;101392.81;1032087;28;718;-65
2022/09/02 02:07:41;;;;;;;;;;;;;;;20.91;45.73;101389.25;1032716;28;633;-66
2022/09/02 02:08:31;;;;;;;;;;;;;;;20.90;45.93;101382.13;1032523;28;678;-66
2022/09/02 02:09:22;;;;;;;;;;;;;;;20.90;45.93;101383.97;1032148;28;650;-66
2022/09/02 02:10:12;;;;;;;;;;;;;;;20.90;45.99;101382.13;1032138;28;673;-66
2022/09/02 02:11:02;;;;;;;;;;;;;;;20.89;45.91;101382.25;1032054;28;680;-65
2022/09/02 02:11:53;;;;;;;;;;;;;;;20.90;45.90;101383.97;1029783;28;1459;-65
2022/09/02 02:12:43;;;;;;;;;;;;;;;20.89;46.00;101385.81;1028753;28;694;-65
2022/09/02 02:13:34;;;;;;;;;;;;;;;20.89;45.84;101387.69;1024291;28;1373;-65
2022/09/02 02:14:24;;;;;;;;;;;;;;;20.89;45.85;101383.13;1025396;28;634;-66
2022/09/02 02:15:15;;;;;;;;;;;;;;;20.89;45.66;101384.97;1028718;28;703;-65
2022/09/02 02:16:05;;;;;;;;;;;;;;;20.89;45.71;101382.25;1028669;28;764;-65
2022/09/02 02:16:56;;;;;;;;;;;;;;;20.88;46.10;101384.13;1028886;28;635;-66
2022/09/02 02:17:46;;;;;;;;;;;;;;;20.89;45.85;101382.25;1028233;28;774;-66
2022/09/02 02:18:37;;;;;;;;;;;;;;;20.88;45.74;101392.25;1028469;28;757;-66
2022/09/02 02:19:27;;;;;;;;;;;;;;;20.88;45.86;101385.97;1029623;28;635;-66
2022/09/02 02:20:18;;;;;;;;;;;;;;;20.88;45.75;101384.13;1029165;28;713;-66
2022/09/02 02:21:08;;;;;;;;;;;;;;;20.87;45.89;101387.84;1029641;28;792;-66
2022/09/02 02:21:58;;;;;;;;;;;;;;;20.87;46.04;101382.41;1029569;28;721;-66
2022/09/02 02:22:49;;;;;;;;;;;;;;;20.87;45.98;101378.84;1028790;28;631;-66
2022/09/02 02:23:39;;;;;;;;;;;;;;;20.86;46.40;101391.53;1028386;28;710;-65
2022/09/02 02:24:30;;;;;;;;;;;;;;;20.86;46.25;101383.41;1029311;28;669;-65
2022/09/02 02:25:20;;;;;;;;;;;;;;;20.85;46.10;101379.00;1029606;28;871;-65
2022/09/02 02:26:11;;;;;;;;;;;;;;;20.85;46.25;101381.72;1029556;28;706;-66
2022/09/02 02:27:01;;;;;;;;;;;;;;;20.84;46.19;101382.72;1029077;28;626;-65
2022/09/02 02:27:52;;;;;;;;;;;;;;;20.85;45.90;101381.72;1025409;28;1544;-65
2022/09/02 02:28:42;;;;;;;;;;;;;;;20.85;46.12;101376.28;1025652;28;697;-66
2022/09/02 02:29:32;;;;;;;;;;;;;;;20.85;46.03;101381.72;1025681;28;627;-66
2022/09/02 02:30:23;;;;;;;;;;;;;;;20.85;46.31;101381.72;1025048;28;807;-66
2022/09/02 02:31:13;;;;;;;;;;;;;;;20.85;46.07;101386.28;1025701;28;615;-65
2022/09/02 02:32:06;;;;;;;;;;;;;;;20.85;45.95;101373.59;1025524;28;642;-66
2022/09/02 02:32:56;;;;;;;;;;;;;;;20.84;45.74;101373.72;1025606;28;631;-65
2022/09/02 02:33:47;;;;;;;;;;;;;;;20.83;46.23;101374.75;1024570;29;642;-65
2022/09/02 02:34:38;;;;;;;;;;;;;;;20.84;45.88;101371.88;1025551;28;690;-65
2022/09/02 02:35:28;;;;;;;;;;;;;;;20.82;45.96;101373.88;1025623;28;682;-65
2022/09/02 02:36:19;;;;;;;;;;;;;;;20.81;45.78;101380.31;1025541;28;680;-65
2022/09/02 02:37:11;;;;;;;;;;;;;;;20.82;46.27;101375.75;1025725;28;618;-65
2022/09/02 02:38:01;;;;;;;;;;;;;;;20.82;46.17;101376.59;1025317;28;690;-65
2022/09/02 02:38:52;;;;;;;;;;;;;;;20.79;45.93;101371.47;1025588;28;698;-65
2022/09/02 02:39:42;;;;;;;;;;;;;;;20.80;46.16;101378.59;1025566;28;647;-65
2022/09/02 02:40:33;;;;;;;;;;;;;;;20.80;45.83;101371.31;1025542;28;634;-65
2022/09/02 02:41:24;;;;;;;;;;;;;;;20.81;46.34;101377.59;1025714;28;619;-65
2022/09/02 02:42:16;;;;;;;;;;;;;;;20.80;45.98;101373.19;1025621;28;686;-65
2022/09/02 02:43:06;;;;;;;;;;;;;;;20.80;45.96;101378.59;1025647;28;661;-65
2022/09/02 02:43:57;;;;;;;;;;;;;;;20.81;46.05;101374.88;1025581;28;1413;-65
2022/09/02 02:44:47;;;;;;;;;;;;;;;20.78;46.37;101367.09;1024407;29;705;-65
2022/09/02 02:45:38;;;;;;;;;;;;;;;20.79;46.18;101376.91;1024615;29;678;-65
2022/09/02 02:46:30;;;;;;;;;;;;;;;20.80;45.89;101375.88;1024451;29;647;-66
2022/09/02 02:47:21;;;;;;;;;;;;;;;20.78;45.93;101376.03;1024547;29;642;-66
2022/09/02 02:48:12;;;;;;;;;;;;;;;20.80;45.59;101381.31;1024519;29;669;-65
2022/09/02 02:49:02;;;;;;;;;;;;;;;20.80;45.76;101370.47;1024489;29;702;-66
2022/09/02 02:49:53;;;;;;;;;;;;;;;20.79;46.29;101372.34;1024489;29;635;-66
2022/09/02 02:50:43;;;;;;;;;;;;;;;20.78;45.97;101372.50;1024417;29;643;-65
2022/09/02 02:51:34;;;;;;;;;;;;;;;20.78;45.94;101364.38;1024233;29;656;-65
2022/09/02 02:52:24;;;;;;;;;;;;;;;20.77;45.94;101365.38;1023776;29;670;-65
2022/09/02 02:53:16;;;;;;;;;;;;;;;20.77;46.23;101371.66;1024531;29;686;-65
2022/09/02 02:54:06;;;;;;;;;;;;;;;20.77;46.38;101368.94;1025122;28;678;-66
2022/09/02 02:54:57;;;;;;;;;;;;;;;20.77;46.53;101362.69;1025544;28;1887;-65
2022/09/02 02:55:47;;;;;;;;;;;;;;;20.77;46.03;101368.09;1025046;28;744;-66
2022/09/02 02:56:38;;;;;;;;;;;;;;;20.75;46.18;101364.69;1025052;28;793;-65
2022/09/02 02:57:28;;;;;;;;;;;;;;;20.75;46.00;101370.97;1024436;29;848;-65
2022/09/02 02:58:19;;;;;;;;;;;;;;;20.75;45.99;101373.66;1024745;28;757;-66
2022/09/02 02:59:09;;;;;;;;;;;;;;;20.75;46.22;101370.09;1024804;28;701;-66
2022/09/02 03:00:01;;;;;;;;;;;;;;;20.74;46.40;101371.97;1020743;29;638;-65
2022/09/02 03:00:51;;;;;;;;;;;;;;;20.73;46.16;101372.97;1020595;29;753;-66
2022/09/02 03:01:42;;;;;;;;;;;;;;;20.73;46.36;101367.53;1021632;28;641;-66
2022/09/02 03:02:33;;;;;;;;;;;;;;;20.73;46.09;101366.69;1021541;28;701;-65
2022/09/02 03:03:24;;;;;;;;;;;;;;;20.73;46.50;101361.28;1020637;29;654;-65
2022/09/02 03:04:14;;;;;;;;;;;;;;;20.73;46.27;101361.28;1024764;28;697;-66
2022/09/02 03:05:05;;;;;;;;;;;;;;;20.73;46.17;101361.28;1024223;29;721;-66
2022/09/02 03:05:55;;;;;;;;;;;;;;;20.72;46.10;101362.28;1020536;29;772;-66
2022/09/02 03:06:45;;;;;;;;;;;;;;;20.73;46.41;101366.69;1021591;29;693;-66
2022/09/02 03:07:36;;;;;;;;;;;;;;;20.72;46.07;101362.28;1021667;28;725;-65
2022/09/02 03:08:26;;;;;;;;;;;;;;;20.73;45.89;101366.69;1021568;28;686;-65
2022/09/02 03:09:19;;;;;;;;;;;;;;;20.73;46.27;101363.97;1021551;28;697;-65
2022/09/02 03:10:09;;;;;;;;;;;;;;;20.73;45.95;101361.28;1021047;29;713;-65
2022/09/02 03:11:00;;;;;;;;;;;;;;;20.72;46.46;101365.00;1021664;28;781;-65
2022/09/02 03:11:50;;;;;;;;;;;;;;;20.73;46.22;101366.69;1021527;28;658;-65
2022/09/02 03:12:41;;;;;;;;;;;;;;;20.72;46.28;101359.56;1021044;29;817;-65
2022/09/02 03:13:31;;;;;;;;;;;;;;;20.72;46.32;101365.84;1020956;29;697;-65
2022/09/02 03:14:23;;;;;;;;;;;;;;;20.71;46.42;101357.88;1024806;28;692;-66
2022/09/02 03:15:14;;;;;;;;;;;;;;;20.71;46.47;101360.56;1025053;28;1946;-65
2022/09/02 03:16:05;;;;;;;;;;;;;;;20.71;46.49;101366.00;1024415;29;662;-65
2022/09/02 03:16:56;;;;;;;;;;;;;;;20.69;46.18;101352.59;1024337;29;646;-65
2022/09/02 03:17:46;;;;;;;;;;;;;;;20.70;46.10;101356.16;1024191;29;639;-65
2022/09/02 03:18:37;;;;;;;;;;;;;;;20.69;46.57;101351.75;1024230;29;669;-65
2022/09/02 03:19:27;;;;;;;;;;;;;;;20.70;46.44;101359.72;1024367;29;647;-65
2022/09/02 03:20:17;;;;;;;;;;;;;;;20.68;46.39;101355.47;1024442;29;778;-65
2022/09/02 03:21:08;;;;;;;;;;;;;;;20.69;46.44;101359.88;1024506;28;639;-66
2022/09/02 03:21:59;;;;;;;;;;;;;;;20.69;46.55;101362.56;1025239;29;765;-65
2022/09/02 03:22:49;;;;;;;;;;;;;;;20.66;46.17;101355.59;1025188;29;651;-65
2022/09/02 03:23:40;;;;;;;;;;;;;;;20.67;46.42;101351.03;1025235;29;744;-65
2022/09/02 03:24:30;;;;;;;;;;;;;;;20.66;46.46;101352.91;1025165;28;631;-65
2022/09/02 03:25:21;;;;;;;;;;;;;;;20.67;46.10;101362.72;1025203;29;647;-65
2022/09/02 03:26:11;;;;;;;;;;;;;;;20.68;46.76;101359.00;1025221;29;631;-65
2022/09/02 03:27:02;;;;;;;;;;;;;;;20.66;46.29;101354.75;1025296;29;717;-65
2022/09/02 03:27:52;;;;;;;;;;;;;;;20.65;46.41;101348.47;1025132;29;749;-65
2022/09/02 03:28:43;;;;;;;;;;;;;;;20.65;46.17;101355.75;1025141;29;638;-65
2022/09/02 03:29:33;;;;;;;;;;;;;;;20.66;46.52;101346.63;1025158;29;562;-65
2022/09/02 03:30:24;;;;;;;;;;;;;;;20.65;46.52;101353.91;1025186;29;643;-65
2022/09/02 03:31:15;;;;;;;;;;;;;;;20.65;46.07;101347.63;1024852;29;1391;-65
2022/09/02 03:32:05;;;;;;;;;;;;;;;20.64;46.61;101351.34;1025329;28;717;-65
2022/09/02 03:32:56;;;;;;;;;;;;;;;20.63;46.18;101346.94;1025587;29;686;-65
2022/09/02 03:33:46;;;;;;;;;;;;;;;20.62;46.55;101351.50;1025694;28;713;-65
2022/09/02 03:34:37;;;;;;;;;;;;;;;20.62;46.32;101358.75;1025668;28;709;-65
2022/09/02 03:35:27;;;;;;;;;;;;;;;20.62;46.34;101348.78;1025784;28;662;-65
2022/09/02 03:36:18;;;;;;;;;;;;;;;20.63;46.47;101355.06;1025276;28;710;-65
2022/09/02 03:37:09;;;;;;;;;;;;;;;20.62;46.23;101347.94;1025281;29;796;-65
2022/09/02 03:37:59;;;;;;;;;;;;;;;20.62;46.16;101354.19;1025693;28;628;-65
2022/09/02 03:38:50;;;;;;;;;;;;;;;20.62;46.36;101345.22;1025608;28;737;-65
2022/09/02 03:39:40;;;;;;;;;;;;;;;20.61;46.72;101352.50;1029397;28;717;-65
2022/09/02 03:40:31;;;;;;;;;;;;;;;20.62;46.63;101342.50;1029515;28;725;-65
2022/09/02 03:41:21;;;;;;;;;;;;;;;20.60;46.23;101349.97;1025852;28;698;-65
2022/09/02 03:42:12;;;;;;;;;;;;;;;20.60;46.40;101344.56;1025705;28;646;-65
2022/09/02 03:43:03;;;;;;;;;;;;;;;20.59;46.58;101349.13;1026138;28;875;-65
2022/09/02 03:43:53;;;;;;;;;;;;;;;20.59;46.14;101349.13;1025709;28;638;-65
2022/09/02 03:44:44;;;;;;;;;;;;;;;20.59;46.16;101351.81;1025682;28;674;-65
2022/09/02 03:45:34;;;;;;;;;;;;;;;20.58;46.42;101335.72;1026309;28;654;-66
2022/09/02 03:46:25;;;;;;;;;;;;;;;20.60;46.05;101339.13;1025680;28;1491;-65
2022/09/02 03:47:16;;;;;;;;;;;;;;;20.58;46.16;101342.00;1025006;29;667;-65
2022/09/02 03:48:07;;;;;;;;;;;;;;;20.58;45.92;101349.25;1025220;28;645;-65
2022/09/02 03:48:57;;;;;;;;;;;;;;;20.57;45.83;101342.13;1025084;29;722;-66
2022/09/02 03:49:47;;;;;;;;;;;;;;;20.57;45.92;101337.56;1025138;29;647;-65
2022/09/02 03:50:38;;;;;;;;;;;;;;;20.58;46.02;101338.44;1024799;29;670;-65
2022/09/02 03:51:29;;;;;;;;;;;;;;;20.57;46.04;101344.84;1024856;29;667;-65
2022/09/02 03:52:20;;;;;;;;;;;;;;;20.57;46.38;101344.84;1024915;29;701;-65
2022/09/02 03:53:11;;;;;;;;;;;;;;;20.57;45.84;101340.28;1025110;29;654;-64
2022/09/02 03:54:02;;;;;;;;;;;;;;;20.56;46.13;101335.03;1025622;28;553;-65
2022/09/02 03:54:53;;;;;;;;;;;;;;;20.58;46.40;101341.13;1025578;28;1965;-65
2022/09/02 03:55:43;;;;;;;;;;;;;;;20.55;45.86;101336.88;1026150;28;634;-65
2022/09/02 03:56:34;;;;;;;;;;;;;;;20.55;46.26;101333.31;1026168;28;709;-65
2022/09/02 03:57:25;;;;;;;;;;;;;;;20.56;46.22;101335.03;1024773;29;651;-65
2022/09/02 03:58:16;;;;;;;;;;;;;;;20.56;45.90;101335.03;1024925;29;686;-65
2022/09/02 03:59:06;;;;;;;;;;;;;;;20.54;45.87;101334.31;1025739;28;571;-65
2022/09/02 03:59:57;;;;;;;;;;;;;;;20.54;46.23;101332.47;1026133;28;713;-65
2022/09/02 04:00:47;;;;;;;;;;;;;;;20.53;45.87;101324.50;1024956;29;687;-65
2022/09/02 04:01:38;;;;;;;;;;;;;;;20.55;45.74;101322.47;1026236;28;682;-65
2022/09/02 04:02:28;;;;;;;;;;;;;;;20.54;46.11;101328.91;1025469;28;1467;-65
2022/09/02 04:03:19;;;;;;;;;;;;;;;20.54;46.11;101334.31;1025143;29;639;-65
2022/09/02 04:04:09;;;;;;;;;;;;;;;20.54;45.87;101323.47;1025029;29;623;-65
2022/09/02 04:05:00;;;;;;;;;;;;;;;20.53;46.20;101325.34;1024707;29;654;-65
2022/09/02 04:05:51;;;;;;;;;;;;;;;20.53;46.01;101324.50;1024965;29;647;-65
2022/09/02 04:06:41;;;;;;;;;;;;;;;20.53;46.20;101324.50;1025015;29;686;-65
2022/09/02 04:07:32;;;;;;;;;;;;;;;20.52;46.32;101322.78;1025101;29;674;-65
2022/09/02 04:08:22;;;;;;;;;;;;;;;20.52;46.15;101320.94;1024975;29;729;-65
2022/09/02 04:09:12;;;;;;;;;;;;;;;20.52;46.40;101325.50;1025083;29;615;-65
2022/09/02 04:10:03;;;;;;;;;;;;;;;20.52;46.26;101325.50;1025012;28;674;-65
2022/09/02 04:10:55;;;;;;;;;;;;;;;20.52;45.91;101322.78;1024960;29;702;-65
2022/09/02 04:11:45;;;;;;;;;;;;;;;20.51;46.03;101323.78;1025052;29;690;-65
2022/09/02 04:12:35;;;;;;;;;;;;;;;20.50;45.81;101320.22;1025046;29;643;-65
2022/09/02 04:13:26;;;;;;;;;;;;;;;20.50;45.93;101322.94;1025098;29;725;-65
2022/09/02 04:14:17;;;;;;;;;;;;;;;20.52;46.24;101320.06;1025076;29;709;-65
2022/09/02 04:15:07;;;;;;;;;;;;;;;20.52;46.41;101325.50;1024921;29;1886;-65
2022/09/02 04:15:57;;;;;;;;;;;;;;;20.50;45.64;101322.94;1024982;29;655;-65
2022/09/02 04:16:48;;;;;;;;;;;;;;;20.50;45.76;101316.66;1025057;29;789;-65
2022/09/02 04:17:38;;;;;;;;;;;;;;;20.48;45.56;101318.66;1025012;29;619;-65
2022/09/02 04:18:29;;;;;;;;;;;;;;;20.48;45.85;101321.38;1024957;29;1313;-65
2022/09/02 04:19:19;;;;;;;;;;;;;;;20.48;45.62;101327.66;1025612;28;865;-65
2022/09/02 04:20:10;;;;;;;;;;;;;;;20.49;46.08;101320.38;1025491;28;1401;-65
2022/09/02 04:21:00;;;;;;;;;;;;;;;20.48;46.05;101321.38;1024873;29;628;-65
2022/09/02 04:21:50;;;;;;;;;;;;;;;20.48;45.61;101318.66;1026059;28;669;-65
2022/09/02 04:22:41;;;;;;;;;;;;;;;20.49;46.07;101325.78;1024967;29;650;-65
2022/09/02 04:23:31;;;;;;;;;;;;;;;20.48;45.71;101318.66;1026102;28;643;-65
2022/09/02 04:24:23;;;;;;;;;;;;;;;20.47;46.25;101322.38;1025003;29;651;-65
2022/09/02 04:25:13;;;;;;;;;;;;;;;20.48;45.72;101321.38;1026725;28;665;-65
2022/09/02 04:26:04;;;;;;;;;;;;;;;20.48;45.76;101324.94;1026067;28;682;-65